Terminal Aerodrome Forecast
Issued by NWS

Home | Current Version | Previous Version | Graphics & Text | Print | Product List | Glossary On
Versions: 1 2 3 4 5 6 7 8 9 10 11 12 13 14 15 16 17 18
000
FTUS42 KMHX 171100
TAFOAJ
TAF
KOAJ 171140Z 1712/1812 00000KT 3SM BR SCT005
      TEMPO 1712/1713 2SM BR BKN003
     FM171300 25007KT P6SM SCT050
     FM180900 00000KT 3SM BR BKN250
      AMD LTD TO CLD VIS AND WIND=

USA.gov is the U.S. government's official web portal to all federal, state and local government web resources and services.